Latest Weather Observations for Roebourne Airport

IDW60801

Issued at 4:33 pm WST Saturday 16 December 2017 (issued every 30 minutes, with the page automatically refreshed every 10 minutes)

About weather observations | Map of weather stations | Latest weather observations for WA | Other Formats
Station Details ID: 004090 Name: ROEBOURNE AERO Lat: -20.76 Lon: 117.16 Height: 10.7 m
Data from the previous 72 hours. | See also: Recent months at Roebourne Airport
Date/Time
WST
Temp
°C
App
Temp
°C
Dew
Point
°C
Rel
Hum
%
Delta-T
°C
Wind Press
QNH
hPa
Press
MSL
hPa
Rain since
9am
mm
Dir  Spd
km/h
Gust
km/h
Spd
kts
Gust
kts
16/04:30pm 35.7 31.4 19.6 39 10.7 WNW 41 52 22 28 1004.5 1004.4 0.0
16/04:00pm 36.5 31.4 18.6 35 11.8 WNW 43 52 23 28 1004.6 1004.5 0.0
16/03:30pm 36.9 32.7 19.8 36 11.4 WNW 41 52 22 28 1004.7 1004.7 0.0
16/03:00pm 37.4 33.2 19.8 35 11.8 WNW 41 50 22 27 1004.7 1004.7 0.0
16/02:30pm 38.3 34.7 20.1 34 12.3 NW 39 50 21 27 1005.2 1005.2 0.0
16/02:00pm 40.2 36.2 17.6 26 14.9 WNW 35 50 19 27 1005.2 1005.2 0.0
16/01:30pm 41.3 37.4 17.9 25 15.4 WNW 35 46 19 25 1005.5 1005.5 0.0
16/01:00pm 41.2 38.1 16.6 24 16.0 WNW 28 37 15 20 1005.7 1005.7 0.0
16/12:35pm 42.1 40.3 16.0 22 16.9 W 20 57 11 31 1006.0 1006.0 0.0
16/12:30pm 41.9 37.3 6.7 12 20.0 W 20 32 11 17 1006.1 1006.1 0.0
16/12:00pm 41.9 37.2 7.8 13 19.7 W 22 39 12 21 1006.4 1006.4 0.0
16/11:30am 41.0 36.5 7.1 13 19.3 WNW 20 32 11 17 1006.7 1006.7 0.0
16/11:00am 40.1 35.7 6.4 13 18.9 W 19 30 10 16 1007.2 1007.2 0.0
16/10:30am 38.7 34.2 8.4 16 17.4 WNW 22 30 12 16 1007.5 1007.5 0.0
16/10:00am 37.5 34.0 12.2 22 15.3 NW 22 32 12 17 1008.0 1008.0 0.0
16/09:30am 36.1 32.5 13.0 25 14.0 WNW 24 32 13 17 1008.2 1008.2 0.0
16/09:00am 34.5 31.6 13.9 29 12.6 W 22 28 12 15 1008.3 1008.3 0.0
16/08:30am 32.4 29.1 14.1 33 11.1 W 24 28 13 15 1008.2 1008.2 0.0
16/08:00am 30.9 28.2 14.5 37 10.0 WNW 22 28 12 15 1008.3 1008.3 0.0
16/07:30am 29.5 27.4 15.2 41 8.8 WNW 20 26 11 14 1008.0 1008.0 0.0
16/07:00am 28.2 26.5 15.8 47 7.6 W 19 22 10 12 1008.1 1008.1 0.0
16/06:30am 26.7 25.5 16.0 52 6.6 W 17 22 9 12 1007.8 1007.8 0.0
16/06:00am 24.8 23.2 16.5 60 5.1 WNW 20 28 11 15 1007.4 1007.4 0.0
16/05:30am 24.5 23.5 16.7 61 4.8 WNW 17 20 9 11 1007.1 1007.1 0.0
16/05:00am 24.8 23.0 17.0 62 4.8 WNW 22 28 12 15 1006.4 1006.4 0.0
16/04:30am 24.8 24.8 18.0 66 4.3 WNW 15 20 8 11 1005.9 1005.9 0.0
16/04:00am 25.3 26.3 18.7 67 4.2 WSW 11 15 6 8 1005.8 1005.8 0.0
16/03:30am 25.7 25.2 19.1 67 4.2 W 20 28 11 15 1005.4 1005.4 0.0
16/03:00am 26.0 25.7 19.6 68 4.1 W 20 26 11 14 1005.2 1005.2 0.0
16/02:30am 26.5 26.0 19.9 67 4.3 W 22 28 12 15 1005.3 1005.3 0.0
16/02:00am 26.5 26.3 20.6 70 3.9 W 22 28 12 15 1005.2 1005.2 0.0
16/01:30am 26.5 26.8 20.8 71 3.8 WNW 20 30 11 16 1005.3 1005.3 0.0
16/01:00am 26.9 26.3 20.5 68 4.2 W 24 30 13 16 1005.3 1005.3 0.0
16/12:30am 27.3 27.0 20.4 66 4.5 W 22 28 12 15 1005.6 1005.6 0.0
16/12:00am 27.5 26.7 20.1 64 4.9 W 24 30 13 16 1005.6 1005.6 0.0
 
Date/Time
WST
Temp
°C
App
Temp
°C
Dew
Point
°C
Rel
Hum
%
Delta-T
°C
Wind Press
QNH
hPa
Press
MSL
hPa
Rain since
9am
mm
Dir  Spd
km/h
Gust
km/h
Spd
kts
Gust
kts
15/11:30pm 27.9 27.0 19.9 61 5.2 W 24 30 13 16 1005.9 1005.9 0.0
15/11:00pm 28.5 27.5 19.7 59 5.8 W 24 32 13 17 1006.0 1006.0 0.0
15/10:30pm 28.8 27.8 19.7 58 5.9 W 24 32 13 17 1006.0 1006.0 0.0
15/10:00pm 28.7 28.3 20.2 60 5.6 W 22 28 12 15 1006.1 1006.1 0.0
15/09:30pm 29.1 28.5 20.5 59 5.7 W 24 32 13 17 1005.9 1005.9 0.0
15/09:00pm 29.5 27.7 20.4 58 6.0 W 30 37 16 20 1005.6 1005.6 0.0
15/08:30pm 30.1 27.9 20.4 56 6.4 W 32 43 17 23 1005.2 1005.2 0.0
15/08:00pm 30.6 28.8 19.6 51 7.2 W 28 37 15 20 1005.0 1005.0 0.0
15/07:30pm 30.7 29.4 20.6 54 6.7 W 28 37 15 20 1004.7 1004.7 0.0
15/07:00pm 31.7 30.9 20.0 50 7.8 WNW 24 33 13 18 1004.6 1004.5 0.0
15/06:30pm 33.8 31.6 18.7 40 9.9 WNW 28 35 15 19 1004.3 1004.2 0.0
15/06:00pm 35.4 32.9 18.0 35 11.3 WNW 28 35 15 19 1004.0 1003.9 0.0
15/05:30pm 36.9 33.5 15.9 28 13.3 WNW 28 35 15 19 1003.9 1003.8 0.0
15/05:00pm 38.4 33.6 12.9 22 15.6 W 30 39 16 21 1003.6 1003.5 0.0
15/04:30pm 38.9 33.4 12.6 21 16.0 W 33 41 18 22 1003.5 1003.4 0.0
15/04:00pm 39.2 33.3 11.3 19 16.8 W 33 43 18 23 1003.6 1003.5 0.0
15/03:30pm 39.0 33.3 14.1 23 15.5 W 37 46 20 25 1003.8 1003.7 0.0
15/03:00pm 38.8 33.3 15.8 25 14.7 WNW 39 48 21 26 1004.1 1004.0 0.0
15/02:30pm 38.2 33.6 17.0 28 13.7 WNW 37 48 20 26 1004.5 1004.4 0.0
15/02:00pm 38.6 34.1 16.3 27 14.3 WNW 35 43 19 23 1004.7 1004.7 0.0
15/01:30pm 38.8 34.2 15.2 24 14.9 WNW 33 43 18 23 1005.1 1005.1 0.0
15/01:00pm 38.2 35.4 19.1 32 12.7 WNW 32 44 17 24 1005.2 1005.2 0.0
15/12:30pm 38.8 36.9 20.1 33 12.6 WNW 30 48 16 26 1005.4 1005.4 0.0
15/12:25pm 38.9 37.4 20.2 33 12.6 WNW 28 48 15 26 1005.4 1005.4 0.0
15/12:00pm 38.2 36.6 20.0 34 12.3 WNW 28 37 15 20 1005.7 1005.7 0.0
15/11:30am 37.8 36.4 19.7 34 12.1 WNW 26 37 14 20 1006.1 1006.1 0.0
15/11:00am 37.8 37.4 21.0 37 11.5 W 24 33 13 18 1006.4 1006.4 0.0
15/10:30am 36.6 36.3 20.4 38 10.9 W 22 35 12 19 1006.8 1006.8 0.0
15/10:00am 35.6 35.3 19.5 38 10.7 W 20 28 11 15 1007.1 1007.1 0.0
15/09:30am 34.0 33.7 20.4 45 9.1 W 22 32 12 17 1007.2 1007.2 0.0
15/09:00am 33.3 33.6 21.5 50 8.0 W 22 32 12 17 1007.3 1007.3 0.0
15/08:30am 31.6 31.8 22.0 56 6.5 W 24 30 13 16 1007.6 1007.6 0.0
15/08:00am 30.0 30.3 22.2 63 5.3 W 24 32 13 17 1007.5 1007.5 0.0
15/07:30am 29.0 29.3 23.0 70 4.1 W 26 33 14 18 1007.5 1007.5 0.0
15/07:00am 27.6 28.8 23.2 77 3.0 W 22 30 12 16 1007.4 1007.4 0.0
15/06:30am 26.6 27.5 23.3 82 2.3 W 24 30 13 16 1007.3 1007.3 0.0
15/06:00am 26.0 27.6 23.3 85 1.8 WSW 20 28 11 15 1006.8 1006.8 0.0
15/05:30am 25.6 27.4 23.5 88 1.4 W 20 28 11 15 1006.6 1006.6 0.0
15/05:00am 25.6 27.4 23.5 88 1.4 W 20 26 11 14 1006.4 1006.4 0.0
15/04:30am 25.4 27.2 23.3 88 1.4 W 19 24 10 13 1006.4 1006.4 0.0
15/04:00am 25.5 27.7 23.2 87 1.6 W 17 22 9 12 1006.1 1006.1 0.0
15/03:30am 25.6 27.3 23.1 86 1.7 W 19 24 10 13 1006.1 1006.1 0.0
15/03:00am 25.5 27.4 22.8 85 1.8 W 17 22 9 12 1006.2 1006.2 0.0
15/02:30am 25.4 28.0 22.7 85 1.8 W 13 17 7 9 1006.4 1006.4 0.0
15/02:00am 25.4 27.5 22.5 84 2.0 W 15 17 8 9 1006.1 1006.1 0.0
15/01:30am 25.4 27.1 22.3 83 2.1 W 17 20 9 11 1006.5 1006.5 0.0
15/01:00am 25.6 26.8 21.5 78 2.7 W 17 20 9 11 1006.7 1006.7 0.0
15/12:30am 26.0 27.2 21.4 76 3.1 W 17 22 9 12 1006.9 1006.9 0.0
15/12:00am 26.4 27.5 22.0 77 3.0 W 19 24 10 13 1007.1 1007.1 0.0
 
Date/Time
WST
Temp
°C
App
Temp
°C
Dew
Point
°C
Rel
Hum
%
Delta-T
°C
Wind Press
QNH
hPa
Press
MSL
hPa
Rain since
9am
mm
Dir  Spd
km/h
Gust
km/h
Spd
kts
Gust
kts
14/11:30pm 26.6 28.0 22.9 80 2.5 WSW 20 26 11 14 1007.4 1007.4 0.0
14/11:00pm 26.7 27.8 23.0 80 2.5 W 22 30 12 16 1007.5 1007.5 0.0
14/10:30pm 26.9 27.4 22.7 78 2.8 W 24 30 13 16 1007.9 1007.9 0.0
14/10:00pm 27.0 28.1 22.4 76 3.1 W 20 26 11 14 1007.8 1007.8 0.0
14/09:30pm 27.2 27.9 22.2 74 3.4 W 22 28 12 15 1007.7 1007.7 0.0
14/09:00pm 27.5 28.5 21.8 71 3.8 W 19 24 10 13 1007.4 1007.4 0.0
14/08:30pm 27.8 27.6 21.3 67 4.3 W 24 30 13 16 1007.3 1007.3 0.0
14/08:00pm 28.1 27.0 21.1 65 4.7 WNW 28 35 15 19 1007.0 1007.0 0.0
14/07:30pm 28.6 26.9 20.6 62 5.3 WNW 30 37 16 20 1006.7 1006.7 0.0
14/07:00pm 29.2 27.0 20.4 59 5.8 W 32 39 17 21 1006.3 1006.3 0.0
14/06:30pm 30.4 27.7 19.7 52 7.0 W 33 43 18 23 1005.9 1005.9 0.0
14/06:00pm 31.9 28.4 17.4 42 9.3 WNW 32 41 17 22 1005.4 1005.4 0.0
14/05:30pm 33.2 29.8 18.2 41 9.7 WNW 33 39 18 21 1005.2 1005.2 0.0
14/05:00pm 34.1 31.6 20.1 43 9.4 WNW 33 43 18 23 1005.0 1005.0 0.0
14/04:30pm 35.8 33.1 19.3 38 10.9 WNW 32 39 17 21 1004.9 1004.9 0.0
14/04:00pm 36.4 32.5 16.5 30 12.7 WNW 32 39 17 21 1004.9 1004.9 0.0
14/03:30pm 37.3 33.3 16.8 29 13.2 WNW 33 41 18 22 1004.9 1004.9 0.0
14/03:00pm 36.8 32.6 15.8 28 13.3 WNW 32 41 17 22 1005.2 1005.2 0.0
14/02:30pm 37.6 33.9 16.0 28 13.8 WNW 30 39 16 21 1005.4 1005.4 0.0
14/02:00pm 37.1 33.6 16.6 29 13.2 WNW 30 39 16 21 1005.8 1005.8 0.0
14/01:30pm 37.4 34.4 16.9 30 13.2 NW 28 33 15 18 1006.1 1006.1 0.0
14/01:00pm 38.6 36.6 17.4 29 13.8 WNW 24 44 13 24 1006.2 1006.2 0.0
14/12:30pm 37.6 35.9 18.1 32 12.8 WNW 24 32 13 17 1006.6 1006.6 0.0
14/12:00pm 36.5 35.4 18.6 35 11.8 WNW 22 32 12 17 1007.0 1007.0 0.0
14/11:30am 36.2 35.4 19.2 37 11.3 NW 22 33 12 18 1007.5 1007.5 0.0
14/11:00am 35.9 35.7 19.8 39 10.8 WNW 20 32 11 17 1007.9 1007.9 0.0
14/10:30am 35.1 35.0 19.5 40 10.3 WNW 19 28 10 15 1008.1 1008.1 0.0
14/10:00am 34.1 33.9 19.7 42 9.6 W 20 28 11 15 1008.4 1008.4 0.0
14/09:30am 33.2 34.8 21.4 50 8.0 W 15 24 8 13 1008.6 1008.6 0.0
14/09:00am 32.4 34.0 22.2 55 7.0 WNW 17 24 9 13 1008.6 1008.6 0.0
14/08:30am 30.9 32.1 22.5 61 5.7 WNW 20 26 11 14 1008.7 1008.7 0.0
14/08:00am 30.3 32.1 23.2 65 4.9 WNW 19 26 10 14 1008.8 1008.8 0.0
14/07:30am 28.5 30.0 23.0 72 3.8 NW 20 26 11 14 1008.8 1008.8 0.0
14/07:00am 27.8 29.8 23.6 78 2.9 WNW 19 24 10 13 1008.7 1008.7 0.0
14/06:30am 26.4 29.6 23.7 85 1.9 NW 13 17 7 9 1008.3 1008.3 0.0
14/06:00am 24.5 28.2 22.2 87 1.5 WSW 6 7 3 4 1008.1 1008.1 0.0
14/05:30am 24.0 27.2 21.7 87 1.5 WNW 7 9 4 5 1007.7 1007.7 0.0
14/05:00am 24.5 27.1 22.0 86 1.7 WNW 11 13 6 7 1007.6 1007.6 0.0
14/04:30am 24.5 27.4 21.8 85 1.8 W 9 11 5 6 1007.6 1007.6 0.0
14/04:00am 25.0 27.3 22.1 84 1.9 W 13 17 7 9 1007.4 1007.4 0.0
14/03:30am 25.0 27.7 22.1 84 1.9 W 11 13 6 7 1007.4 1007.4 0.0
14/03:00am 25.0 27.3 22.1 84 1.9 W 13 17 7 9 1007.4 1007.4 0.0
14/02:30am 24.6 26.1 21.3 82 2.2 W 15 17 8 9 1007.4 1007.4 0.0
14/02:00am 24.7 26.9 21.2 81 2.3 W 11 13 6 7 1007.5 1007.5 0.0
14/01:30am 25.4 27.4 21.5 79 2.6 W 13 17 7 9 1007.7 1007.7 0.0
14/01:00am 25.7 27.0 21.6 78 2.7 W 17 20 9 11 1007.7 1007.7 0.0
14/12:30am 25.8 27.4 21.5 77 2.9 WSW 15 19 8 10 1008.0 1008.0 0.0
14/12:00am 26.2 27.1 21.6 76 3.1 WSW 19 26 10 14 1008.2 1008.2 0.0
 
Date/Time
WST
Temp
°C
App
Temp
°C
Dew
Point
°C
Rel
Hum
%
Delta-T
°C
Wind Press
QNH
hPa
Press
MSL
hPa
Rain since
9am
mm
Dir  Spd
km/h
Gust
km/h
Spd
kts
Gust
kts
13/11:30pm 26.3 27.0 21.5 75 3.2 W 20 30 11 16 1008.5 1008.5 0.0
13/11:00pm 26.5 27.6 21.9 76 3.1 W 19 22 10 12 1008.8 1008.8 0.0
13/10:30pm 26.6 27.5 22.0 76 3.1 W 20 30 11 16 1009.0 1009.0 0.0
13/10:00pm 26.7 26.8 21.9 75 3.2 W 24 35 13 19 1009.0 1009.0 0.0
13/09:30pm 26.8 26.8 21.6 73 3.5 W 24 32 13 17 1008.9 1008.9 0.0
13/09:00pm 27.0 27.2 22.0 74 3.4 W 24 32 13 17 1008.6 1008.6 0.0
13/08:30pm 27.4 27.8 21.7 71 3.8 W 22 30 12 16 1008.4 1008.4 0.0
13/08:00pm 27.7 26.8 21.5 69 4.1 WNW 28 37 15 20 1008.1 1008.1 0.0
13/07:30pm 28.1 27.8 21.1 65 4.7 W 24 32 13 17 1008.0 1008.0 0.0
13/07:00pm 28.7 27.8 21.5 65 4.8 W 28 33 15 18 1007.5 1007.5 0.0
13/06:30pm 29.6 28.4 21.5 61 5.4 WNW 30 35 16 19 1007.2 1007.2 0.0
13/06:00pm 30.6 29.4 20.8 56 6.5 WNW 28 35 15 19 1007.0 1007.0 0.0
13/05:30pm 31.7 30.4 20.6 51 7.4 WNW 28 39 15 21 1006.8 1006.8 0.0
13/05:00pm 32.2 29.7 19.8 48 8.2 WNW 32 41 17 22 1006.6 1006.6 0.0

Other Formats:

Comma delimited format used in spreadsheet applications
http://www.bom.gov.au/fwo/IDW60801/IDW60801.94308.axf

JavaScript Object Notation format (JSON) in row-major order
http://www.bom.gov.au/fwo/IDW60801/IDW60801.94308.json